Time;durP1;ratioP1;P1;durP2;ratioP2;P2;SDS_P1;SDS_P2;PMS_P1;PMS_P2;Temp;Humidity;BMP_temperature;BMP_pressure;BME280_temperature;BME280_humidity;BME280_pressure;Samples;Min_cycle;Max_cycle;Signal;HPM_P1;HPM_P2
2022/04/13 00:01:15;;;;;;;2.70;2.47;;;15.50;85.00;;;;;;5052308;28;20385;-45
2022/04/13 00:03:42;;;;;;;2.10;1.90;;;15.50;85.00;;;;;;5052086;28;20041;-45
2022/04/13 00:06:08;;;;;;;3.15;2.50;;;15.50;85.10;;;;;;5051970;28;20021;-43
2022/04/13 00:08:34;;;;;;;5.47;2.35;;;15.50;85.00;;;;;;5051744;28;20394;-46
2022/04/13 00:11:00;;;;;;;5.50;2.45;;;15.50;85.10;;;;;;5051975;28;20108;-45
2022/04/13 00:13:26;;;;;;;3.30;2.22;;;15.50;85.10;;;;;;5052031;28;20474;-47
2022/04/13 00:15:52;;;;;;;3.72;2.40;;;15.40;85.20;;;;;;5051889;28;20443;-45
2022/04/13 00:18:17;;;;;;;3.90;1.92;;;15.40;85.30;;;;;;5051519;28;20387;-42
2022/04/13 00:20:43;;;;;;;10.05;3.08;;;15.30;85.40;;;;;;5051925;28;20025;-44
2022/04/13 00:23:09;;;;;;;4.55;2.00;;;15.30;85.50;;;;;;5051635;28;20108;-45
2022/04/13 00:25:38;;;;;;;5.75;2.38;;;15.30;85.60;;;;;;5051934;28;20443;-43
2022/04/13 00:28:04;;;;;;;2.25;1.98;;;15.30;86.10;;;;;;5051638;28;20460;-45
2022/04/13 00:30:29;;;;;;;3.50;2.28;;;15.30;86.40;;;;;;5052039;28;20055;-43
2022/04/13 00:32:55;;;;;;;2.72;2.28;;;15.30;87.20;;;;;;5052006;28;20025;-45
2022/04/13 00:35:20;;;;;;;2.45;2.10;;;15.30;87.50;;;;;;5051667;28;20037;-49
2022/04/13 00:37:46;;;;;;;1.90;1.80;;;15.30;86.40;;;;;;5051165;28;20086;-45
2022/04/13 00:40:12;;;;;;;2.17;1.67;;;15.30;86.10;;;;;;5051551;28;20063;-45
2022/04/13 00:42:37;;;;;;;5.45;2.63;;;15.30;87.00;;;;;;5051550;28;20036;-43
2022/04/13 00:45:03;;;;;;;3.42;2.20;;;15.30;86.30;;;;;;5051387;28;20036;-46
2022/04/13 00:47:28;;;;;;;1.90;1.80;;;15.30;86.40;;;;;;5051553;28;20066;-45
2022/04/13 00:49:54;;;;;;;4.63;2.40;;;15.20;87.70;;;;;;5051376;28;20477;-43
2022/04/13 00:52:23;;;;;;;4.00;2.33;;;15.20;88.30;;;;;;5051164;28;20024;-45
2022/04/13 00:54:49;;;;;;;2.67;2.40;;;15.20;89.20;;;;;;5050919;28;20064;-47
2022/04/13 00:57:18;;;;;;;2.83;2.05;;;15.10;90.20;;;;;;5050972;28;20504;-42
2022/04/13 00:59:48;;;;;;;2.35;1.88;;;15.00;91.10;;;;;;5051120;28;20021;-42
2022/04/13 01:02:16;;;;;;;3.55;2.08;;;14.90;90.80;;;;;;5051380;28;20018;-45
2022/04/13 01:04:45;;;;;;;5.28;2.13;;;14.70;91.00;;;;;;5050925;28;20056;-44
2022/04/13 01:07:11;;;;;;;2.78;1.92;;;14.60;91.90;;;;;;5050742;28;20109;-44
2022/04/13 01:09:37;;;;;;;7.85;1.77;;;14.50;90.70;;;;;;5051317;28;20095;-48
2022/04/13 01:12:04;;;;;;;10.45;2.30;;;14.60;91.10;;;;;;5051194;28;20027;-45
2022/04/13 01:14:30;;;;;;;6.47;2.50;;;14.50;91.90;;;;;;5051039;28;20026;-43
2022/04/13 01:16:57;;;;;;;3.00;2.00;;;14.50;91.90;;;;;;5050844;28;20029;-46
2022/04/13 01:19:22;;;;;;;5.55;2.40;;;14.40;92.30;;;;;;5050984;28;20064;-45
2022/04/13 01:21:58;;;;;;;5.57;2.15;;;14.40;92.50;;;;;;5051094;28;20052;-43
2022/04/13 01:25:19;;;;;;;2.80;2.30;;;14.30;93.00;;;;;;5050754;28;20039;-46
2022/04/13 01:27:45;;;;;;;6.88;2.35;;;14.20;93.30;;;;;;5048945;28;20037;-44
2022/04/13 01:30:13;;;;;;;2.45;2.10;;;14.00;93.40;;;;;;5051174;28;20029;-43
2022/04/13 01:32:39;;;;;;;3.10;2.08;;;14.10;93.80;;;;;;5049519;28;20099;-44
2022/04/13 01:35:06;;;;;;;2.85;2.30;;;14.00;93.90;;;;;;5049134;28;20485;-45
2022/04/13 01:37:32;;;;;;;5.43;1.90;;;14.00;94.20;;;;;;5050235;28;20159;-44
2022/04/13 01:39:57;;;;;;;2.70;2.03;;;13.90;94.60;;;;;;5051567;28;20056;-44
2022/04/13 01:42:23;;;;;;;3.83;2.30;;;13.90;94.90;;;;;;5050856;28;20025;-46
2022/04/13 01:44:48;;;;;;;2.90;1.83;;;13.80;95.30;;;;;;5051089;28;20053;-45
2022/04/13 01:47:14;;;;;;;4.28;2.28;;;13.80;95.60;;;;;;5050280;28;20400;-44
2022/04/13 01:49:40;;;;;;;1.98;1.83;;;13.70;96.20;;;;;;5051149;28;20071;-45
2022/04/13 01:52:07;;;;;;;4.10;3.00;;;13.70;96.50;;;;;;5050726;28;20056;-43
2022/04/13 01:54:33;;;;;;;4.22;2.78;;;13.70;97.00;;;;;;5050810;28;20029;-46
2022/04/13 01:56:58;;;;;;;7.70;2.17;;;13.60;97.00;;;;;;5050340;28;20236;-46
2022/04/13 01:59:25;;;;;;;3.45;2.08;;;13.60;97.80;;;;;;5050843;28;20041;-45
2022/04/13 02:01:50;;;;;;;2.45;2.20;;;13.60;98.50;;;;;;5050691;28;20033;-46
2022/04/13 02:04:21;;;;;;;3.05;2.30;;;13.60;98.60;;;;;;5050467;28;20037;-44
2022/04/13 02:06:47;;;;;;;2.65;2.40;;;13.60;98.70;;;;;;5050237;28;20040;-44
2022/04/13 02:09:13;;;;;;;5.75;2.20;;;13.60;98.70;;;;;;5053212;28;20064;-44
2022/04/13 02:11:38;;;;;;;6.68;2.22;;;13.60;98.70;;;;;;5054129;28;20487;-44
2022/04/13 02:14:04;;;;;;;4.20;2.58;;;13.50;99.20;;;;;;5053920;28;20424;-46
2022/04/13 02:16:30;;;;;;;2.55;2.35;;;13.50;99.80;;;;;;5053957;28;20025;-45
2022/04/13 02:18:55;;;;;;;4.70;2.50;;;13.40;99.90;;;;;;5035643;28;20035;-44
2022/04/13 02:21:21;;;;;;;7.15;2.83;;;13.50;98.00;;;;;;5053930;28;20052;-45
2022/04/13 02:23:46;;;;;;;7.70;2.80;;;13.50;97.50;;;;;;5053861;28;20392;-44
2022/04/13 02:26:12;;;;;;;12.80;3.13;;;13.80;96.30;;;;;;5053902;28;20421;-45
2022/04/13 02:28:38;;;;;;;4.55;2.53;;;13.80;96.70;;;;;;5053523;28;20021;-44
2022/04/13 02:31:03;;;;;;;6.38;2.72;;;13.70;96.60;;;;;;5054080;28;20028;-46
2022/04/13 02:33:31;;;;;;;6.57;3.05;;;13.60;96.50;;;;;;5053685;28;20057;-43
2022/04/13 02:35:58;;;;;;;8.25;2.30;;;13.50;96.30;;;;;;5053794;28;20036;-45
2022/04/13 02:38:23;;;;;;;2.97;2.53;;;13.40;96.40;;;;;;5053497;28;20442;-44
2022/04/13 02:40:49;;;;;;;6.65;3.05;;;13.40;96.50;;;;;;5053721;28;20029;-46
2022/04/13 02:43:15;;;;;;;2.40;2.20;;;13.40;96.50;;;;;;5053750;28;20025;-44
2022/04/13 02:45:41;;;;;;;3.13;2.50;;;13.40;96.40;;;;;;5053602;28;20108;-46
2022/04/13 02:48:07;;;;;;;7.38;2.80;;;13.40;96.20;;;;;;5053624;28;20063;-44
2022/04/13 02:50:33;;;;;;;5.20;2.58;;;13.40;95.90;;;;;;5054103;28;20021;-48
2022/04/13 02:52:59;;;;;;;4.45;2.47;;;13.50;95.80;;;;;;5053482;28;20021;-46
2022/04/13 02:55:25;;;;;;;5.55;2.55;;;13.70;95.60;;;;;;5053731;28;20086;-43
2022/04/13 02:57:50;;;;;;;6.68;2.65;;;13.70;95.70;;;;;;5053492;28;20095;-44
2022/04/13 03:00:16;;;;;;;3.00;2.72;;;13.70;95.80;;;;;;5053466;28;20040;-44
2022/04/13 03:02:44;;;;;;;8.13;2.78;;;13.80;96.00;;;;;;5053528;28;20484;-44
2022/04/13 03:05:10;;;;;;;5.97;2.90;;;13.70;96.20;;;;;;5053179;28;20024;-44
2022/04/13 03:07:36;;;;;;;4.57;2.97;;;13.60;96.50;;;;;;5053067;28;20083;-43
2022/04/13 03:10:03;;;;;;;4.13;3.13;;;13.60;96.90;;;;;;5052884;28;20071;-48
2022/04/13 03:12:29;;;;;;;4.80;2.75;;;13.50;98.30;;;;;;5053070;28;20423;-46
2022/04/13 03:14:54;;;;;;;7.13;2.30;;;13.40;98.60;;;;;;5053038;28;20028;-44
2022/04/13 03:17:20;;;;;;;3.65;2.30;;;13.30;99.80;;;;;;5052872;28;20277;-49
2022/04/13 03:19:45;;;;;;;5.78;2.47;;;13.30;99.90;;;;;;5052889;28;20031;-45
2022/04/13 03:22:11;;;;;;;8.57;2.90;;;13.20;99.90;;;;;;5052948;28;20072;-47
2022/04/13 03:24:36;;;;;;;2.55;2.33;;;13.10;99.90;;;;;;5034914;28;20047;-44
2022/04/13 03:27:02;;;;;;;3.03;2.30;;;13.10;99.90;;;;;;5052365;28;20079;-44
2022/04/13 03:29:28;;;;;;;6.18;2.75;;;13.00;99.90;;;;;;5053177;28;20028;-45
2022/04/13 03:31:54;;;;;;;4.95;3.00;;;13.00;99.90;;;;;;5052745;28;20488;-49
2022/04/13 03:34:20;;;;;;;2.78;2.58;;;13.00;99.90;;;;;;5052522;28;20026;-46
2022/04/13 03:36:49;;;;;;;2.78;2.50;;;12.90;99.90;;;;;;5052083;28;20047;-47
2022/04/13 03:39:16;;;;;;;3.08;2.65;;;12.80;99.90;;;;;;5052588;28;20491;-45
2022/04/13 03:41:42;;;;;;;5.30;2.75;;;12.80;99.90;;;;;;5052294;28;20021;-48
2022/04/13 03:44:08;;;;;;;4.38;2.90;;;12.80;99.90;;;;;;5052346;28;20029;-44
2022/04/13 03:46:34;;;;;;;4.07;2.63;;;12.70;99.90;;;;;;5052101;28;20041;-47
2022/04/13 03:48:59;;;;;;;5.07;2.60;;;12.70;99.90;;;;;;5034085;28;20063;-45
2022/04/13 03:51:25;;;;;;;3.65;2.50;;;12.70;99.90;;;;;;5052072;28;20022;-47
2022/04/13 03:53:51;;;;;;;3.90;2.67;;;12.70;99.90;;;;;;5052426;28;20021;-48
2022/04/13 03:56:16;;;;;;;6.15;2.72;;;12.70;99.90;;;;;;5052013;28;20021;-46
2022/04/13 03:58:42;;;;;;;4.95;3.08;;;12.60;99.90;;;;;;5051966;28;20108;-45
2022/04/13 04:01:08;;;;;;;5.10;2.97;;;12.60;99.90;;;;;;5052215;28;20114;-44
2022/04/13 04:03:35;;;;;;;4.75;2.50;;;12.60;99.90;;;;;;5052213;28;20028;-48
2022/04/13 04:06:01;;;;;;;3.03;2.47;;;12.60;99.90;;;;;;5051857;28;20401;-48
2022/04/13 04:08:27;;;;;;;5.30;3.10;;;12.50;99.90;;;;;;5051606;28;20017;-46
2022/04/13 04:10:53;;;;;;;5.47;3.05;;;12.50;99.90;;;;;;5051939;28;20028;-44
2022/04/13 04:13:19;;;;;;;5.35;3.75;;;12.30;99.90;;;;;;5051672;28;20392;-46
2022/04/13 04:15:45;;;;;;;5.30;4.28;;;12.30;99.90;;;;;;5051865;28;20102;-47
2022/04/13 04:18:10;;;;;;;5.30;3.67;;;12.30;99.90;;;;;;5051391;28;20499;-44
2022/04/13 04:20:36;;;;;;;8.10;3.70;;;12.30;99.90;;;;;;5051597;28;20029;-44
2022/04/13 04:23:01;;;;;;;8.35;3.63;;;12.40;99.90;;;;;;5051686;28;20029;-44
2022/04/13 04:25:27;;;;;;;4.93;3.20;;;12.40;99.90;;;;;;5051671;28;20511;-43
2022/04/13 04:27:52;;;;;;;4.20;3.42;;;12.40;99.90;;;;;;5051417;28;20029;-46
2022/04/13 04:30:18;;;;;;;4.32;2.92;;;12.40;99.90;;;;;;5051512;28;20143;-44
2022/04/13 04:32:43;;;;;;;8.77;4.20;;;12.40;99.90;;;;;;5051658;28;20024;-44
2022/04/13 04:35:10;;;;;;;8.10;4.03;;;12.40;99.90;;;;;;5051504;28;20036;-46
2022/04/13 04:37:35;;;;;;;22.77;13.20;;;12.40;99.90;;;;;;5051036;28;20066;-45
2022/04/13 04:40:01;;;;;;;19.00;11.10;;;12.40;99.90;;;;;;5050246;28;20419;-44
2022/04/13 04:45:04;;;;;;;9.10;5.13;;;12.30;99.90;;;;;;5029427;28;20108;-42
2022/04/13 04:47:30;;;;;;;5.15;3.95;;;12.40;99.90;;;;;;5029844;28;20504;-45
2022/04/13 04:49:57;;;;;;;8.95;6.85;;;12.40;99.90;;;;;;5031683;28;20068;-48
2022/04/13 04:52:22;;;;;;;7.00;4.97;;;12.50;99.90;;;;;;5031532;28;20026;-42
2022/04/13 04:54:48;;;;;;;9.05;5.68;;;12.50;99.90;;;;;;5030215;28;20428;-48
2022/04/13 04:57:13;;;;;;;3.05;2.65;;;12.50;99.90;;;;;;5030751;28;20048;-49
2022/04/13 04:59:39;;;;;;;13.20;7.57;;;12.50;99.90;;;;;;5031607;28;20029;-47
2022/04/13 05:02:04;;;;;;;4.80;3.60;;;12.50;99.90;;;;;;5030181;28;20032;-42
2022/04/13 05:04:30;;;;;;;4.72;3.40;;;12.50;99.90;;;;;;5046700;28;20478;-46
2022/04/13 05:06:55;;;;;;;5.25;3.28;;;12.60;99.90;;;;;;5046384;28;20033;-47
2022/04/13 05:09:22;;;;;;;3.00;2.70;;;12.50;99.90;;;;;;5031705;28;20071;-46
2022/04/13 05:11:48;;;;;;;7.82;3.38;;;12.50;99.90;;;;;;5031365;28;20488;-46
2022/04/13 05:14:16;;;;;;;8.35;3.28;;;12.40;99.90;;;;;;5031258;28;20038;-45
2022/04/13 05:16:41;;;;;;;3.67;2.92;;;12.40;99.90;;;;;;5046529;28;20524;-50
2022/04/13 05:19:07;;;;;;;7.50;3.30;;;12.40;99.90;;;;;;5031162;28;20046;-43
2022/04/13 05:21:32;;;;;;;4.70;3.20;;;12.50;99.90;;;;;;5031597;28;20118;-46
2022/04/13 05:23:58;;;;;;;3.53;3.00;;;12.50;99.90;;;;;;5031294;28;20424;-47
2022/04/13 05:26:23;;;;;;;5.45;3.20;;;12.60;99.90;;;;;;5031231;28;20033;-45
2022/04/13 05:28:49;;;;;;;6.25;3.30;;;12.60;99.90;;;;;;5031029;28;20053;-49
2022/04/13 05:31:15;;;;;;;6.70;3.88;;;12.70;99.90;;;;;;5046741;28;20022;-46
2022/04/13 05:33:40;;;;;;;8.13;4.10;;;12.70;99.90;;;;;;5031016;28;20024;-44
2022/04/13 05:36:06;;;;;;;6.38;3.65;;;12.80;99.90;;;;;;5031384;28;20500;-45
2022/04/13 05:38:32;;;;;;;6.60;3.10;;;12.80;99.90;;;;;;5031017;28;20037;-44
2022/04/13 05:40:57;;;;;;;6.57;3.20;;;12.90;99.90;;;;;;5029827;28;20041;-49
2022/04/13 05:43:23;;;;;;;3.92;3.35;;;12.90;99.90;;;;;;5029806;28;20487;-48
2022/04/13 05:45:48;;;;;;;6.07;3.70;;;13.00;99.90;;;;;;5035094;28;20095;-47
2022/04/13 05:48:14;;;;;;;8.90;4.63;;;13.00;99.90;;;;;;5034480;28;20028;-47
2022/04/13 05:50:39;;;;;;;5.70;3.20;;;13.10;99.90;;;;;;5034493;28;20022;-46
2022/04/13 05:53:05;;;;;;;4.75;3.45;;;13.10;99.90;;;;;;5038207;28;20026;-44
2022/04/13 05:55:30;;;;;;;5.05;3.20;;;13.30;99.90;;;;;;5029773;28;20026;-48
2022/04/13 05:57:57;;;;;;;3.70;3.10;;;13.30;99.90;;;;;;5023428;28;20037;-51
2022/04/13 06:00:22;;;;;;;4.40;3.67;;;13.20;99.90;;;;;;5034094;28;20080;-44
2022/04/13 06:02:48;;;;;;;6.57;3.58;;;13.30;99.90;;;;;;5034428;28;20509;-48
2022/04/13 06:05:14;;;;;;;5.28;3.33;;;13.40;99.90;;;;;;5034320;28;20108;-47
2022/04/13 06:07:41;;;;;;;3.10;2.80;;;13.50;99.90;;;;;;5034043;28;20025;-48
2022/04/13 06:10:08;;;;;;;4.20;3.17;;;13.60;99.90;;;;;;5034563;28;20191;-54
2022/04/13 06:12:34;;;;;;;9.93;3.58;;;13.80;99.60;;;;;;5034275;28;20017;-46
2022/04/13 06:15:08;;;;;;;5.95;3.42;;;14.10;99.40;;;;;;5033665;28;20032;-50
2022/04/13 06:17:34;;;;;;;5.70;3.58;;;14.20;99.10;;;;;;5048873;28;20099;-49
2022/04/13 06:19:59;;;;;;;5.30;3.95;;;14.40;99.30;;;;;;5034555;28;20113;-50
2022/04/13 06:22:25;;;;;;;6.28;3.60;;;14.50;99.80;;;;;;5034504;28;20104;-48
2022/04/13 06:24:51;;;;;;;5.88;3.75;;;14.60;99.90;;;;;;5034116;28;20026;-45
2022/04/13 06:27:20;;;;;;;4.45;4.05;;;14.80;99.90;;;;;;5032527;28;20500;-52
2022/04/13 06:29:46;;;;;;;6.80;3.70;;;15.00;99.90;;;;;;5034059;28;20550;-51
2022/04/13 06:32:13;;;;;;;6.72;3.92;;;15.10;99.90;;;;;;5049446;28;20112;-47
2022/04/13 06:34:39;;;;;;;12.27;4.32;;;15.20;99.90;;;;;;5033912;28;20021;-51
2022/04/13 06:37:05;;;;;;;7.65;3.63;;;15.50;99.80;;;;;;5033569;28;20562;-51
2022/04/13 06:39:30;;;;;;;6.35;4.53;;;15.50;98.70;;;;;;5033879;28;20029;-49
2022/04/13 06:41:56;;;;;;;9.48;4.38;;;15.80;98.40;;;;;;5033873;28;20029;-48
2022/04/13 06:44:21;;;;;;;9.52;3.50;;;15.90;97.80;;;;;;5033373;28;20030;-49
2022/04/13 06:46:47;;;;;;;6.10;3.42;;;16.20;97.40;;;;;;5033485;28;20030;-44
2022/04/13 06:49:13;;;;;;;5.65;3.72;;;16.40;97.00;;;;;;5033599;28;20432;-47
2022/04/13 06:51:38;;;;;;;4.00;3.60;;;16.60;97.50;;;;;;5033647;28;20029;-54
2022/04/13 06:54:04;;;;;;;7.88;3.10;;;16.80;97.00;;;;;;5032148;28;20044;-50
2022/04/13 06:56:29;;;;;;;5.00;3.58;;;16.90;96.50;;;;;;5031563;28;20052;-49
2022/04/13 06:58:55;;;;;;;6.57;3.88;;;17.10;96.20;;;;;;5032156;28;20040;-48
2022/04/13 07:01:20;;;;;;;8.48;3.28;;;17.30;95.20;;;;;;5033578;28;20028;-53
2022/04/13 07:03:46;;;;;;;8.15;3.92;;;17.60;94.70;;;;;;5033186;28;20037;-51
2022/04/13 07:06:11;;;;;;;7.32;3.95;;;17.90;94.00;;;;;;5033167;28;20389;-54
2022/04/13 07:08:37;;;;;;;5.35;4.00;;;18.20;93.70;;;;;;5033166;28;20041;-44
2022/04/13 07:11:03;;;;;;;9.38;3.60;;;18.30;93.00;;;;;;5033354;28;20300;-50
2022/04/13 07:13:29;;;;;;;5.13;3.58;;;18.50;92.60;;;;;;5032886;28;20033;-51
2022/04/13 07:15:54;;;;;;;4.95;3.33;;;18.70;92.00;;;;;;5033562;28;20052;-49
2022/04/13 07:18:20;;;;;;;5.45;3.25;;;19.00;90.90;;;;;;5032729;28;20025;-49
2022/04/13 07:20:45;;;;;;;6.28;3.63;;;19.00;89.70;;;;;;5033102;28;20516;-45
2022/04/13 07:23:11;;;;;;;3.72;3.10;;;19.10;89.80;;;;;;5032494;28;20063;-52
2022/04/13 07:25:36;;;;;;;6.63;2.92;;;18.90;89.40;;;;;;5032179;28;20025;-52
2022/04/13 07:28:02;;;;;;;5.28;3.13;;;18.60;89.90;;;;;;5032302;28;20033;-52
2022/04/13 07:30:28;;;;;;;6.90;2.80;;;18.40;89.80;;;;;;5032215;28;20034;-51
2022/04/13 07:33:01;;;;;;;5.32;2.80;;;17.90;90.40;;;;;;5032306;28;20580;-53
2022/04/13 07:35:27;;;;;;;9.75;4.35;;;17.50;91.50;;;;;;5032495;28;20412;-52
2022/04/13 07:37:53;;;;;;;7.78;3.30;;;17.00;92.30;;;;;;5032176;28;20025;-48
2022/04/13 07:40:19;;;;;;;4.93;3.30;;;16.70;93.20;;;;;;5032655;28;20021;-52
2022/04/13 07:42:45;;;;;;;4.60;3.10;;;16.40;93.70;;;;;;5032410;28;20033;-46
2022/04/13 07:45:10;;;;;;;6.55;3.10;;;16.40;93.70;;;;;;5032504;28;20041;-47
2022/04/13 07:47:36;;;;;;;13.95;3.28;;;16.30;94.10;;;;;;5031882;28;20128;-47
2022/04/13 07:50:02;;;;;;;3.40;3.10;;;16.30;94.50;;;;;;5032400;28;20033;-45
2022/04/13 07:52:35;;;;;;;7.47;4.35;;;16.50;94.10;;;;;;5031876;28;20022;-46
2022/04/13 07:55:01;;;;;;;5.70;3.28;;;16.70;93.80;;;;;;5031841;28;20450;-47
2022/04/13 07:57:27;;;;;;;4.32;2.78;;;16.80;93.80;;;;;;5031707;28;20105;-49
2022/04/13 07:59:52;;;;;;;5.15;3.15;;;16.80;93.80;;;;;;5032274;28;20099;-45
2022/04/13 08:02:20;;;;;;;4.47;3.00;;;16.80;93.40;;;;;;5031592;28;20060;-47
2022/04/13 08:04:46;;;;;;;7.10;2.72;;;16.70;93.30;;;;;;5032006;28;20394;-46
2022/04/13 08:07:12;;;;;;;4.68;3.42;;;16.80;93.40;;;;;;5046212;28;20039;-50
2022/04/13 08:09:38;;;;;;;5.05;3.30;;;17.10;93.00;;;;;;5032054;28;20540;-46
2022/04/13 08:12:04;;;;;;;3.63;3.30;;;17.20;92.70;;;;;;5032206;28;20447;-47
2022/04/13 08:14:29;;;;;;;5.28;2.80;;;17.20;92.30;;;;;;5031899;28;20053;-43
2022/04/13 08:16:55;;;;;;;4.30;2.95;;;17.20;92.80;;;;;;5031424;28;20040;-47
2022/04/13 08:19:20;;;;;;;3.65;2.60;;;17.50;92.90;;;;;;5032134;28;20492;-49
2022/04/13 08:21:46;;;;;;;3.13;2.78;;;17.70;93.00;;;;;;5031495;28;20033;-46
2022/04/13 08:24:11;;;;;;;3.88;2.97;;;18.20;93.10;;;;;;5031355;28;20382;-47
2022/04/13 08:26:37;;;;;;;9.95;3.00;;;18.70;92.50;;;;;;5031370;28;20079;-50
2022/04/13 08:29:03;;;;;;;9.50;2.72;;;19.10;91.10;;;;;;5031266;28;20052;-51
2022/04/13 08:31:29;;;;;;;6.60;3.50;;;19.40;91.00;;;;;;5031778;28;20298;-45
2022/04/13 08:33:54;;;;;;;5.20;3.00;;;19.70;89.00;;;;;;5030970;28;20033;-46
2022/04/13 08:36:20;;;;;;;19.77;12.35;;;19.90;88.60;;;;;;5031562;28;20026;-46
2022/04/13 08:38:45;;;;;;;6.93;3.83;;;19.80;88.50;;;;;;5031151;28;20030;-50
2022/04/13 08:41:19;;;;;;;5.15;3.33;;;19.90;89.20;;;;;;5031956;28;20025;-42
2022/04/13 08:43:56;;;;;;;6.40;3.20;;;20.50;88.00;;;;;;5030561;28;20129;-41
2022/04/13 08:46:26;;;;;;;7.80;3.15;;;21.10;85.20;;;;;;5031303;28;20104;-41
2022/04/13 08:48:55;;;;;;;4.57;3.35;;;21.70;84.30;;;;;;5030609;28;20029;-44
2022/04/13 08:51:22;;;;;;;3.20;2.90;;;22.00;82.80;;;;;;5031723;28;20564;-43
2022/04/13 08:53:55;;;;;;;5.30;2.88;;;22.50;81.10;;;;;;5030443;28;20107;-42
2022/04/13 08:56:21;;;;;;;5.30;3.10;;;22.80;79.80;;;;;;5026479;28;20384;-46
2022/04/13 08:59:01;;;;;;;7.20;3.63;;;22.90;79.40;;;;;;5029356;28;20439;-43
2022/04/13 09:01:41;;;;;;;3.85;3.45;;;23.60;78.40;;;;;;5030635;28;20027;-50
2022/04/13 09:04:10;;;;;;;12.00;3.30;;;24.20;75.10;;;;;;5031115;28;20080;-49
2022/04/13 09:06:37;;;;;;;11.25;4.13;;;24.60;75.00;;;;;;5041949;28;20373;-43
2022/04/13 09:09:08;;;;;;;4.63;3.75;;;24.60;74.30;;;;;;5032404;28;20026;-48
2022/04/13 09:11:38;;;;;;;7.65;4.30;;;24.30;74.50;;;;;;5036933;28;20049;-46
2022/04/13 09:14:05;;;;;;;8.00;4.22;;;24.00;74.80;;;;;;5033248;28;20029;-46
2022/04/13 09:16:32;;;;;;;6.25;4.78;;;23.30;75.60;;;;;;5030888;28;20099;-48
2022/04/13 09:18:57;;;;;;;6.55;5.00;;;22.90;76.20;;;;;;5034496;28;20040;-50
2022/04/13 09:21:27;;;;;;;7.30;4.63;;;22.50;78.00;;;;;;5034997;28;20017;-54
2022/04/13 09:23:52;;;;;;;5.85;4.45;;;22.40;79.40;;;;;;5033712;28;20060;-55
2022/04/13 09:26:19;;;;;;;7.40;5.05;;;22.30;79.70;;;;;;5034874;28;20029;-53
2022/04/13 09:28:44;;;;;;;7.00;4.60;;;22.20;79.00;;;;;;5035328;28;20481;-46
2022/04/13 09:31:10;;;;;;;7.68;5.40;;;22.20;79.40;;;;;;5035163;28;20067;-45
2022/04/13 09:33:36;;;;;;;8.90;5.00;;;22.30;79.80;;;;;;5035038;28;20026;-52
2022/04/13 09:36:01;;;;;;;6.90;4.60;;;22.40;79.90;;;;;;5035074;28;20083;-48
2022/04/13 09:38:27;;;;;;;7.85;4.97;;;22.60;78.40;;;;;;5034875;28;20095;-48
2022/04/13 09:40:54;;;;;;;8.48;4.88;;;22.80;77.70;;;;;;5035194;28;20025;-48
2022/04/13 09:43:24;;;;;;;6.38;4.35;;;22.90;78.60;;;;;;5034824;28;20030;-49
2022/04/13 09:45:51;;;;;;;4.22;3.92;;;23.00;78.60;;;;;;5034734;28;20034;-49
2022/04/13 09:48:19;;;;;;;8.95;5.05;;;23.20;78.90;;;;;;5034750;28;20370;-50
2022/04/13 09:50:47;;;;;;;47.53;33.08;;;23.30;79.40;;;;;;5034778;28;20444;-46
2022/04/13 09:53:14;;;;;;;13.52;9.32;;;23.40;79.10;;;;;;5035026;28;20106;-48
2022/04/13 09:55:44;;;;;;;7.80;4.63;;;23.50;78.50;;;;;;5034747;28;20059;-47
2022/04/13 09:58:12;;;;;;;9.88;4.65;;;23.60;78.60;;;;;;5034139;28;20021;-48
2022/04/13 10:00:38;;;;;;;6.10;4.88;;;23.60;78.90;;;;;;5034532;28;20489;-47
2022/04/13 10:03:15;;;;;;;9.13;4.95;;;23.60;77.40;;;;;;5034379;28;20428;-46
2022/04/13 10:05:46;;;;;;;10.20;5.15;;;23.50;77.00;;;;;;5034488;28;20018;-48
2022/04/13 10:08:14;;;;;;;13.50;5.45;;;23.50;77.30;;;;;;5033838;28;20026;-49
2022/04/13 10:10:46;;;;;;;7.55;5.47;;;23.60;76.60;;;;;;5034643;28;20092;-49
2022/04/13 10:13:30;;;;;;;8.23;5.10;;;23.50;75.80;;;;;;5034170;28;20013;-48
2022/04/13 10:15:57;;;;;;;9.07;6.40;;;23.20;73.90;;;;;;5014617;28;20072;-48
2022/04/13 10:18:22;;;;;;;11.82;6.18;;;22.90;74.20;;;;;;5014566;28;20026;-45
2022/04/13 10:20:48;;;;;;;11.75;5.25;;;22.70;74.40;;;;;;5014591;28;20454;-49
2022/04/13 10:23:14;;;;;;;9.35;6.07;;;22.60;72.50;;;;;;5014771;28;20046;-47
2022/04/13 10:25:41;;;;;;;12.10;5.50;;;22.60;73.90;;;;;;5014069;28;20026;-50
2022/04/13 10:28:07;;;;;;;11.07;5.72;;;22.50;74.40;;;;;;5034088;28;20096;-47
2022/04/13 10:30:41;;;;;;;13.13;6.43;;;22.30;75.50;;;;;;5033396;28;20049;-48
2022/04/13 10:33:12;;;;;;;8.98;5.85;;;22.20;76.50;;;;;;5033812;28;20546;-47
2022/04/13 10:35:39;;;;;;;12.30;5.22;;;22.10;76.10;;;;;;5033822;28;20033;-46
2022/04/13 10:38:05;;;;;;;10.43;5.55;;;21.90;74.40;;;;;;5033806;28;20112;-50
2022/04/13 10:40:42;;;;;;;19.33;6.65;;;21.80;73.90;;;;;;5034576;28;20026;-49
2022/04/13 10:43:11;;;;;;;14.43;5.90;;;21.50;76.30;;;;;;5033614;28;20570;-51
2022/04/13 10:45:46;;;;;;;10.68;6.35;;;21.50;76.50;;;;;;5060635;23;20049;-44
2022/04/13 10:48:17;;;;;;;12.23;6.78;;;21.30;77.90;;;;;;5064046;28;20029;-51
2022/04/13 10:51:02;;;;;;;11.32;5.40;;;21.40;77.50;;;;;;5066164;28;20044;-50
2022/04/13 10:53:52;;;;;;;15.95;6.13;;;21.40;78.50;;;;;;5066165;28;20052;-47
2022/04/13 10:56:20;;;;;;;8.50;5.30;;;21.40;79.00;;;;;;5052998;28;20029;-43
2022/04/13 10:59:15;;;;;;;12.93;6.03;;;21.30;79.20;;;;;;5051688;28;20037;-49
2022/04/13 11:01:50;;;;;;;10.18;5.82;;;21.50;79.70;;;;;;5053290;28;20025;-49
2022/04/13 11:04:16;;;;;;;;;;;21.50;78.80;;;;;;5039169;28;20488;-47
2022/04/13 11:06:43;;;;;;;10.02;5.57;;;21.60;79.00;;;;;;5053439;28;19924;-48
2022/04/13 11:09:16;;;;;;;13.85;5.75;;;21.80;77.80;;;;;;5053241;28;20021;-48
2022/04/13 11:11:43;;;;;;;8.23;5.93;;;21.70;77.30;;;;;;5053263;28;20021;-45
2022/04/13 11:14:21;;;;;;;12.27;6.88;;;21.60;76.40;;;;;;5052975;28;20106;-51
2022/04/13 11:16:51;;;;;;;14.88;6.55;;;21.60;76.10;;;;;;5033111;28;20028;-46
2022/04/13 11:19:18;;;;;;;11.73;6.03;;;21.80;75.60;;;;;;5015425;28;20530;-51
2022/04/13 11:21:54;;;;;;;11.10;5.85;;;21.90;75.50;;;;;;5032903;28;20045;-48
2022/04/13 11:24:45;;;;;;;8.63;5.28;;;22.10;75.80;;;;;;5043024;28;20044;-46
2022/04/13 11:27:11;;;;;;;52.40;33.80;;;22.30;76.00;;;;;;5039078;28;20055;-47
2022/04/13 11:29:42;;;;;;;26.23;15.43;;;22.50;75.10;;;;;;5052840;28;20403;-48
2022/04/13 11:32:10;;;;;;;12.38;6.82;;;22.60;74.20;;;;;;5052863;28;20392;-51
2022/04/13 11:34:35;;;;;;;13.35;4.78;;;22.60;73.90;;;;;;5052662;28;20068;-52
2022/04/13 11:37:03;;;;;;;12.98;4.78;;;22.60;73.90;;;;;;5052372;28;20110;-44
2022/04/13 11:39:53;;;;;;;11.35;5.97;;;22.50;73.40;;;;;;5052671;28;20151;-47
2022/04/13 11:42:28;;;;;;;9.35;4.70;;;22.50;73.90;;;;;;5051889;28;20025;-49
2022/04/13 11:45:11;;;;;;;8.80;4.32;;;22.60;73.70;;;;;;5050877;28;20029;-49
2022/04/13 11:47:51;;;;;;;10.57;3.90;;;22.60;73.50;;;;;;5051962;28;20035;-45
2022/04/13 11:50:17;;;;;;;9.55;4.88;;;22.50;73.00;;;;;;5052518;28;20017;-48
2022/04/13 11:53:06;;;;;;;10.18;4.20;;;22.50;73.30;;;;;;5052077;28;20017;-47
2022/04/13 11:55:37;;;;;;;10.20;4.93;;;22.50;73.70;;;;;;5050632;28;20021;-46
2022/04/13 11:58:08;;;;;;;10.88;4.88;;;22.40;74.80;;;;;;5051805;28;20059;-49
2022/04/13 12:00:56;;;;;;;8.65;4.18;;;22.50;77.30;;;;;;5052387;28;20515;-46
2022/04/13 12:03:32;;;;;;;9.27;4.93;;;22.50;77.90;;;;;;5052255;28;20021;-46
2022/04/13 12:06:00;;;;;;;11.20;5.28;;;22.60;75.80;;;;;;5051995;28;20090;-49
2022/04/13 12:08:25;;;;;;;12.20;4.93;;;22.70;76.30;;;;;;5047580;28;20496;-45
2022/04/13 12:11:05;;;;;;;11.25;5.25;;;22.70;77.90;;;;;;5051844;28;20104;-46
2022/04/13 12:13:44;;;;;;;15.88;4.72;;;22.80;78.60;;;;;;5051675;28;20021;-49
2022/04/13 12:16:15;;;;;;;6.22;3.92;;;22.90;78.00;;;;;;5035958;28;20501;-47
2022/04/13 12:18:41;;;;;;;9.25;4.20;;;22.80;77.40;;;;;;5051573;28;20037;-48
2022/04/13 12:21:09;;;;;;;6.20;3.58;;;22.90;77.20;;;;;;5051639;28;20488;-45
2022/04/13 12:23:37;;;;;;;10.15;4.00;;;22.80;78.20;;;;;;5051305;28;20048;-45
2022/04/13 12:26:03;;;;;;;6.65;4.03;;;22.80;77.80;;;;;;5051712;28;20112;-45
2022/04/13 12:28:29;;;;;;;11.73;4.95;;;22.90;78.80;;;;;;5051580;28;20071;-47
2022/04/13 12:31:08;;;;;;;7.32;4.60;;;22.90;78.60;;;;;;5051486;28;20123;-47
2022/04/13 12:33:36;;;;;;;7.50;4.20;;;22.90;77.10;;;;;;5031855;28;20067;-48
2022/04/13 12:36:04;;;;;;;4.97;3.88;;;22.80;77.00;;;;;;5031795;28;20060;-47
2022/04/13 12:38:31;;;;;;;10.98;4.68;;;22.90;77.20;;;;;;5037804;28;20028;-47
2022/04/13 12:41:10;;;;;;;13.70;4.18;;;22.80;75.80;;;;;;5050562;28;20511;-49
2022/04/13 12:43:38;;;;;;;5.78;3.70;;;22.90;76.10;;;;;;5050991;28;20546;-48
2022/04/13 12:46:33;;;;;;;10.52;4.07;;;22.80;77.30;;;;;;5050827;28;20040;-47
2022/04/13 12:49:06;;;;;;;10.73;4.37;;;22.70;77.20;;;;;;5024113;28;20029;-51
2022/04/13 12:51:38;;;;;;;6.97;4.50;;;22.70;76.80;;;;;;5050826;28;20110;-47